createdAt,value
2022-09-03T00:00:41.641Z,20.76
2022-09-03T00:03:21.375Z,20.69
2022-09-03T00:05:57.849Z,20.76
2022-09-03T00:08:34.747Z,20.89
2022-09-03T00:13:39.770Z,20.82
2022-09-03T00:16:16.153Z,20.73
2022-09-03T00:18:49.791Z,20.69
2022-09-03T00:21:33.060Z,20.73
2022-09-03T00:24:07.051Z,20.72
2022-09-03T00:26:48.997Z,20.67
2022-09-03T00:29:24.306Z,20.68
2022-09-03T00:32:01.098Z,20.62
2022-09-03T00:34:35.322Z,20.62
2022-09-03T00:37:05.575Z,20.53
2022-09-03T00:39:37.983Z,20.48
2022-09-03T00:42:33.685Z,20.49
2022-09-03T00:45:17.315Z,20.54
2022-09-03T00:48:01.067Z,20.46
2022-09-03T00:50:42.608Z,20.48
2022-09-03T00:53:18.587Z,20.46
2022-09-03T00:55:58.556Z,20.42
2022-09-03T00:58:55.660Z,20.57
2022-09-03T01:01:31.597Z,20.64
2022-09-03T01:04:14.371Z,20.70
2022-09-03T01:06:54.116Z,20.67
2022-09-03T01:09:40.082Z,20.70
2022-09-03T01:12:17.427Z,20.68
2022-09-03T01:14:59.396Z,20.61
2022-09-03T01:17:38.399Z,20.62
2022-09-03T01:20:42.395Z,20.52
2022-09-03T01:23:54.787Z,20.48
2022-09-03T01:26:45.402Z,20.46
2022-09-03T01:29:26.732Z,20.48
2022-09-03T01:32:08.221Z,20.42
2022-09-03T01:34:50.824Z,20.43
2022-09-03T01:37:29.647Z,20.50
2022-09-03T01:40:09.525Z,20.40
2022-09-03T01:42:50.000Z,20.44
2022-09-03T01:45:32.831Z,20.43
2022-09-03T01:48:16.753Z,20.38
2022-09-03T01:50:57.827Z,20.42
2022-09-03T01:53:42.523Z,20.42
2022-09-03T01:56:23.948Z,20.35
2022-09-03T01:59:02.528Z,20.34
2022-09-03T02:01:38.480Z,20.26
2022-09-03T02:04:18.183Z,20.37
2022-09-03T02:06:49.813Z,20.45
2022-09-03T02:09:20.612Z,20.41
2022-09-03T02:11:55.801Z,20.49
2022-09-03T02:14:27.861Z,20.52
2022-09-03T02:17:01.858Z,20.50
2022-09-03T02:19:32.519Z,20.52
2022-09-03T02:22:02.456Z,20.60
2022-09-03T02:24:32.655Z,20.52
2022-09-03T02:27:02.673Z,20.62
2022-09-03T02:29:33.866Z,20.65
2022-09-03T02:32:05.284Z,20.56
2022-09-03T02:34:35.367Z,20.56
2022-09-03T02:37:14.107Z,20.50
2022-09-03T02:39:43.962Z,20.51
2022-09-03T02:42:15.744Z,20.53
2022-09-03T02:44:49.831Z,20.60
2022-09-03T02:47:21.479Z,20.55
2022-09-03T02:49:51.463Z,20.52
2022-09-03T02:52:21.388Z,20.53
2022-09-03T02:54:51.393Z,20.46
2022-09-03T02:57:27.305Z,20.46
2022-09-03T02:59:57.723Z,20.55
2022-09-03T03:02:29.057Z,20.53
2022-09-03T03:04:59.074Z,20.48
2022-09-03T03:07:29.472Z,20.56
2022-09-03T03:09:59.900Z,20.53
2022-09-03T03:12:31.336Z,20.49
2022-09-03T03:15:03.012Z,20.47
2022-09-03T03:17:35.558Z,20.40
2022-09-03T03:20:05.933Z,20.39
2022-09-03T03:22:35.894Z,20.29
2022-09-03T03:25:06.641Z,20.34
2022-09-03T03:27:42.402Z,20.38
2022-09-03T03:30:14.607Z,20.33
2022-09-03T03:32:46.120Z,20.36
2022-09-03T03:35:16.440Z,20.34
2022-09-03T03:37:46.402Z,20.35
2022-09-03T03:40:16.775Z,20.28
2022-09-03T03:42:46.827Z,20.28
2022-09-03T03:45:16.919Z,20.38
2022-09-03T03:47:48.470Z,20.46
2022-09-03T03:50:18.466Z,20.39
2022-09-03T03:52:48.839Z,20.30
2022-09-03T03:55:18.716Z,20.27
2022-09-03T03:57:48.707Z,20.26
2022-09-03T04:00:18.876Z,20.23
2022-09-03T04:02:50.678Z,20.08
2022-09-03T04:05:23.198Z,20.06
2022-09-03T04:07:53.900Z,20.10
2022-09-03T04:10:25.085Z,20.05
2022-09-03T04:12:56.378Z,20.11
2022-09-03T04:15:28.545Z,20.11
2022-09-03T04:18:00.665Z,20.16
2022-09-03T04:20:30.983Z,20.24
2022-09-03T04:23:02.244Z,20.27
2022-09-03T04:25:32.622Z,20.23
2022-09-03T04:28:03.919Z,20.29
2022-09-03T04:30:34.066Z,20.26
2022-09-03T04:33:05.604Z,20.30
2022-09-03T04:35:35.969Z,20.32
2022-09-03T04:38:07.556Z,20.33
2022-09-03T04:40:37.490Z,20.40
2022-09-03T04:43:08.579Z,20.39
2022-09-03T04:45:38.687Z,20.33
2022-09-03T04:48:12.023Z,20.37
2022-09-03T04:50:42.115Z,20.44
2022-09-03T04:53:12.334Z,20.46
2022-09-03T04:55:43.392Z,20.47
2022-09-03T04:58:13.574Z,20.45
2022-09-03T05:00:43.594Z,20.53
2022-09-03T05:03:15.063Z,20.59
2022-09-03T05:05:52.628Z,20.62
2022-09-03T05:08:23.283Z,20.61
2022-09-03T05:11:00.155Z,20.65
2022-09-03T05:13:30.259Z,20.76
2022-09-03T05:16:02.243Z,20.86
2022-09-03T05:18:35.841Z,20.91
2022-09-03T05:21:07.750Z,20.97
2022-09-03T05:23:39.277Z,21.03
2022-09-03T05:26:11.589Z,21.08
2022-09-03T05:28:43.504Z,21.21
2022-09-03T05:31:15.205Z,21.20
2022-09-03T05:33:48.502Z,21.31
2022-09-03T05:36:20.392Z,21.29
2022-09-03T05:38:51.291Z,21.23
2022-09-03T05:41:23.086Z,21.49
2022-09-03T05:43:56.002Z,21.43
2022-09-03T05:46:31.912Z,21.36
2022-09-03T05:49:07.390Z,21.54
2022-09-03T05:51:39.539Z,21.69
2022-09-03T05:54:10.354Z,21.57
2022-09-03T05:56:42.576Z,21.69
2022-09-03T05:59:13.889Z,21.78
2022-09-03T06:01:51.660Z,21.72
2022-09-03T06:04:25.188Z,21.86
2022-09-03T06:06:55.384Z,21.79
2022-09-03T06:09:25.380Z,21.85
2022-09-03T06:11:57.249Z,21.93
2022-09-03T06:14:27.393Z,21.99
2022-09-03T06:16:57.380Z,22.12
2022-09-03T06:19:28.862Z,22.08
2022-09-03T06:21:58.963Z,22.20
2022-09-03T06:24:29.806Z,21.93
2022-09-03T06:26:59.863Z,22.06
2022-09-03T06:29:29.905Z,22.14
2022-09-03T06:32:05.086Z,22.05
2022-09-03T06:34:36.456Z,22.13
2022-09-03T06:37:06.464Z,22.15
2022-09-03T06:39:36.568Z,22.14
2022-09-03T06:42:06.976Z,21.99
2022-09-03T06:44:37.025Z,21.95
2022-09-03T06:47:07.166Z,21.79
2022-09-03T06:49:38.835Z,21.51
2022-09-03T06:52:09.236Z,21.76
2022-09-03T06:54:40.794Z,22.06
2022-09-03T06:57:11.100Z,22.15
2022-09-03T06:59:41.172Z,22.18
2022-09-03T07:02:11.478Z,22.31
2022-09-03T07:04:43.472Z,22.36
2022-09-03T07:07:14.102Z,22.40
2022-09-03T07:09:47.706Z,22.42
2022-09-03T07:12:19.356Z,22.61
2022-09-03T07:14:51.097Z,22.81
2022-09-03T07:17:21.262Z,22.76
2022-09-03T07:19:52.808Z,22.66
2022-09-03T07:22:22.711Z,22.75
2022-09-03T07:25:02.048Z,22.77
2022-09-03T07:27:32.062Z,22.80
2022-09-03T07:30:03.521Z,23.05
2022-09-03T07:32:35.015Z,23.11
2022-09-03T07:35:07.381Z,23.18
2022-09-03T07:37:38.524Z,23.23
2022-09-03T07:40:10.046Z,23.41
2022-09-03T07:42:40.520Z,23.47
2022-09-03T07:45:12.492Z,23.41
2022-09-03T07:47:48.713Z,23.47
2022-09-03T07:50:20.802Z,23.51
2022-09-03T07:52:51.156Z,23.62
2022-09-03T07:55:21.289Z,23.67
2022-09-03T07:57:51.648Z,23.56
2022-09-03T08:00:21.929Z,23.67
2022-09-03T08:02:54.199Z,23.55
2022-09-03T08:05:27.667Z,23.73
2022-09-03T08:07:58.004Z,23.92
2022-09-03T08:10:31.397Z,24.05
2022-09-03T08:13:01.667Z,24.07
2022-09-03T08:15:31.839Z,24.19
2022-09-03T08:18:03.413Z,24.21
2022-09-03T08:20:35.536Z,24.34
2022-09-03T08:23:05.731Z,24.51
2022-09-03T08:25:35.788Z,24.47
2022-09-03T08:28:05.778Z,24.40
2022-09-03T08:30:36.125Z,24.38
2022-09-03T08:33:08.551Z,24.50
2022-09-03T08:35:40.106Z,24.56
2022-09-03T08:38:10.206Z,24.62
2022-09-03T08:40:42.784Z,24.66
2022-09-03T08:43:18.818Z,24.71
2022-09-03T08:45:49.060Z,24.65
2022-09-03T08:48:26.074Z,24.61
2022-09-03T08:51:01.726Z,24.80
2022-09-03T08:53:42.138Z,24.84
2022-09-03T08:56:16.124Z,24.93
2022-09-03T08:58:46.317Z,24.97
2022-09-03T09:01:27.625Z,24.97
2022-09-03T09:04:06.905Z,24.99
2022-09-03T09:06:45.091Z,24.84
2022-09-03T09:09:29.526Z,24.89
2022-09-03T09:12:18.046Z,24.88
2022-09-03T09:15:01.692Z,24.84
2022-09-03T09:17:47.175Z,24.92
2022-09-03T09:20:25.316Z,24.97
2022-09-03T09:23:02.422Z,25.02
2022-09-03T09:25:33.835Z,24.87
2022-09-03T09:28:08.062Z,24.93
2022-09-03T09:30:38.859Z,25.08
2022-09-03T09:33:08.833Z,25.08
2022-09-03T09:35:41.906Z,25.11
2022-09-03T09:38:14.093Z,25.34
2022-09-03T09:40:47.244Z,25.43
2022-09-03T09:43:21.108Z,25.46
2022-09-03T09:45:53.561Z,25.25
2022-09-03T09:48:31.243Z,25.38
2022-09-03T09:51:10.309Z,25.41
2022-09-03T09:53:42.059Z,25.50
2022-09-03T09:56:22.698Z,25.55
2022-09-03T09:59:03.678Z,25.73
2022-09-03T10:01:33.978Z,25.62
2022-09-03T10:04:11.857Z,25.51
2022-09-03T10:06:57.293Z,25.60
2022-09-03T10:09:30.962Z,25.71
2022-09-03T10:12:14.551Z,25.77
2022-09-03T10:14:51.353Z,25.85
2022-09-03T10:17:37.092Z,25.94
2022-09-03T10:20:30.086Z,25.98
2022-09-03T10:23:15.309Z,26.11
2022-09-03T10:25:53.791Z,26.19
2022-09-03T10:28:26.885Z,26.18
2022-09-03T10:31:19.216Z,26.10
2022-09-03T10:33:55.466Z,26.10
2022-09-03T10:36:30.082Z,26.18
2022-09-03T10:39:07.081Z,25.99
2022-09-03T10:41:55.991Z,26.03
2022-09-03T10:44:43.945Z,26.04
2022-09-03T10:47:35.375Z,25.91
2022-09-03T10:50:16.295Z,25.80
2022-09-03T10:53:07.050Z,25.69
2022-09-03T10:55:48.166Z,25.83
2022-09-03T10:58:34.434Z,25.98
2022-09-03T11:01:11.986Z,26.15
2022-09-03T11:03:49.137Z,26.27
2022-09-03T11:06:24.719Z,26.38
2022-09-03T11:09:05.848Z,26.36
2022-09-03T11:11:41.795Z,26.51
2022-09-03T11:14:17.218Z,26.46
2022-09-03T11:16:53.883Z,26.59
2022-09-03T11:19:35.273Z,26.64
2022-09-03T11:22:08.117Z,26.48
2022-09-03T11:24:41.167Z,26.37
2022-09-03T11:27:26.327Z,26.39
2022-09-03T11:30:03.868Z,26.44
2022-09-03T11:32:55.905Z,26.41
2022-09-03T11:35:29.082Z,26.35
2022-09-03T11:38:02.132Z,26.32
2022-09-03T11:40:35.501Z,26.31
2022-09-03T11:43:13.042Z,26.39
2022-09-03T11:45:44.604Z,26.37
2022-09-03T11:48:36.079Z,26.26
2022-09-03T11:51:18.956Z,26.36
2022-09-03T11:53:57.058Z,26.57
2022-09-03T11:56:28.051Z,26.71
2022-09-03T11:59:07.250Z,26.63
2022-09-03T12:01:41.119Z,26.66
2022-09-03T12:04:17.056Z,26.77
2022-09-03T12:07:05.748Z,26.81
2022-09-03T12:09:56.337Z,26.90
2022-09-03T12:12:40.865Z,26.90
2022-09-03T12:15:20.052Z,26.90
2022-09-03T12:18:19.155Z,26.95
2022-09-03T12:21:01.150Z,27.07
2022-09-03T12:23:34.351Z,27.21
2022-09-03T12:26:07.211Z,27.21
2022-09-03T12:28:41.473Z,27.29
2022-09-03T12:31:25.413Z,27.28
2022-09-03T12:34:00.221Z,27.26
2022-09-03T12:36:38.623Z,27.27
2022-09-03T12:39:13.247Z,27.30
2022-09-03T12:41:57.248Z,27.16
2022-09-03T12:44:29.708Z,27.37
2022-09-03T12:50:07.248Z,27.22
2022-09-03T12:52:41.269Z,27.27
2022-09-03T12:55:27.117Z,27.06
2022-09-03T12:58:04.539Z,27.16
2022-09-03T13:00:41.059Z,27.30
2022-09-03T13:03:17.896Z,27.30
2022-09-03T13:05:53.605Z,27.28
2022-09-03T13:08:27.507Z,27.26
2022-09-03T13:11:00.891Z,27.28
2022-09-03T13:13:32.636Z,27.25
2022-09-03T13:16:29.849Z,27.25
2022-09-03T13:19:07.902Z,27.21
2022-09-03T13:21:46.120Z,27.35
2022-09-03T13:24:41.401Z,27.51
2022-09-03T13:27:23.851Z,27.68
2022-09-03T13:30:05.997Z,27.56
2022-09-03T13:32:59.476Z,27.47
2022-09-03T13:35:36.036Z,27.38
2022-09-03T13:38:19.759Z,27.39
2022-09-03T13:40:55.974Z,27.32
2022-09-03T13:43:33.615Z,27.36
2022-09-03T13:46:08.619Z,27.25
2022-09-03T13:48:59.206Z,27.21
2022-09-03T13:51:32.144Z,27.07
2022-09-03T13:54:13.178Z,26.89
2022-09-03T13:56:54.736Z,26.79
2022-09-03T13:59:35.155Z,26.65
2022-09-03T14:02:24.269Z,26.63
2022-09-03T14:05:04.774Z,26.52
2022-09-03T14:07:54.381Z,26.53
2022-09-03T14:10:40.440Z,26.42
2022-09-03T14:13:21.528Z,26.42
2022-09-03T14:15:59.259Z,26.38
2022-09-03T14:18:40.386Z,26.26
2022-09-03T14:21:17.350Z,26.21
2022-09-03T14:23:54.599Z,26.18
2022-09-03T14:26:39.217Z,26.18
2022-09-03T14:29:17.532Z,26.07
2022-09-03T14:32:24.568Z,26.09
2022-09-03T14:35:19.420Z,26.05
2022-09-03T14:38:23.787Z,25.99
2022-09-03T14:41:06.262Z,26.03
2022-09-03T14:44:03.080Z,26.04
2022-09-03T14:46:49.990Z,25.99
2022-09-03T14:49:37.244Z,25.95
2022-09-03T14:52:30.372Z,25.95
2022-09-03T14:55:16.192Z,25.93
2022-09-03T14:58:04.727Z,25.86
2022-09-03T15:00:48.133Z,25.87
2022-09-03T15:03:30.445Z,25.82
2022-09-03T15:06:10.640Z,25.80
2022-09-03T15:08:54.830Z,25.78
2022-09-03T15:11:27.799Z,25.69
2022-09-03T15:14:10.619Z,25.66
2022-09-03T15:16:54.793Z,25.64
2022-09-03T15:19:57.356Z,25.58
2022-09-03T15:22:39.014Z,25.41
2022-09-03T15:25:17.523Z,25.09
2022-09-03T15:28:00.490Z,24.81
2022-09-03T15:30:36.586Z,24.55
2022-09-03T15:33:18.549Z,24.48
2022-09-03T15:36:04.699Z,24.41
2022-09-03T15:38:46.424Z,24.21
2022-09-03T15:41:29.514Z,24.11
2022-09-03T15:44:01.225Z,24.08
2022-09-03T15:46:46.540Z,24.05
2022-09-03T15:49:30.349Z,23.95
2022-09-03T15:52:30.088Z,23.86
2022-09-03T15:55:08.600Z,23.74
2022-09-03T15:57:46.639Z,23.89
2022-09-03T16:00:21.529Z,23.75
2022-09-03T16:03:00.975Z,23.77
2022-09-03T16:05:43.444Z,23.80
2022-09-03T16:08:23.640Z,23.78
2022-09-03T16:11:04.912Z,23.77
2022-09-03T16:13:48.872Z,23.61
2022-09-03T16:16:22.946Z,23.58
2022-09-03T16:19:04.491Z,23.70
2022-09-03T16:21:45.468Z,23.56
2022-09-03T16:24:22.391Z,23.37
2022-09-03T16:26:57.787Z,23.58
2022-09-03T16:29:31.107Z,23.57
2022-09-03T16:32:19.541Z,23.49
2022-09-03T16:35:04.523Z,23.58
2022-09-03T16:37:46.000Z,23.53
2022-09-03T16:40:26.474Z,23.42
2022-09-03T16:43:23.567Z,23.50
2022-09-03T16:46:08.390Z,23.32
2022-09-03T16:48:50.317Z,23.28
2022-09-03T16:51:30.004Z,23.34
2022-09-03T16:54:14.818Z,23.30
2022-09-03T16:56:55.650Z,23.26
2022-09-03T16:59:44.621Z,23.17
2022-09-03T17:02:42.207Z,23.28
2022-09-03T17:05:30.955Z,23.18
2022-09-03T17:08:17.011Z,23.25
2022-09-03T17:10:55.669Z,23.18
2022-09-03T17:13:55.084Z,23.24
2022-09-03T17:16:39.645Z,23.21
2022-09-03T17:19:15.711Z,23.24
2022-09-03T17:21:54.284Z,23.29
2022-09-03T17:24:47.878Z,23.16
2022-09-03T17:27:41.602Z,23.14
2022-09-03T17:30:34.243Z,23.12
2022-09-03T17:33:36.356Z,23.00
2022-09-03T17:36:14.128Z,22.90
2022-09-03T17:39:18.147Z,22.88
2022-09-03T17:41:54.064Z,23.00
2022-09-03T17:44:44.534Z,23.02
2022-09-03T17:47:35.672Z,22.98
2022-09-03T17:50:15.996Z,22.85
2022-09-03T17:52:49.712Z,22.96
2022-09-03T17:55:31.917Z,22.93
2022-09-03T17:58:14.075Z,22.95
2022-09-03T18:00:53.568Z,22.92
2022-09-03T18:03:28.573Z,22.73
2022-09-03T18:06:04.358Z,22.67
2022-09-03T18:08:44.808Z,22.74
2022-09-03T18:11:19.843Z,22.70
2022-09-03T18:13:59.463Z,22.76
2022-09-03T18:16:33.906Z,22.71
2022-09-03T18:19:17.961Z,22.60
2022-09-03T18:22:08.279Z,22.52
2022-09-03T18:25:02.303Z,22.34
2022-09-03T18:27:52.267Z,22.47
2022-09-03T18:30:39.972Z,22.41
2022-09-03T18:33:29.042Z,22.39
2022-09-03T18:36:17.885Z,22.40
2022-09-03T18:39:05.155Z,22.27
2022-09-03T18:42:15.619Z,22.25
2022-09-03T18:45:22.184Z,22.12
2022-09-03T18:48:22.947Z,22.01
2022-09-03T18:51:22.129Z,22.05
2022-09-03T18:54:25.987Z,22.02
2022-09-03T18:57:13.791Z,22.12
2022-09-03T19:00:20.152Z,22.03
2022-09-03T19:03:24.130Z,22.11
2022-09-03T19:06:24.395Z,22.00
2022-09-03T19:09:21.917Z,21.92
2022-09-03T19:12:22.872Z,22.02
2022-09-03T19:15:18.219Z,21.94
2022-09-03T19:18:38.343Z,21.79
2022-09-03T19:21:38.355Z,21.76
2022-09-03T19:24:27.689Z,21.78
2022-09-03T19:27:52.917Z,21.76
2022-09-03T19:30:42.806Z,21.42
2022-09-03T19:33:45.177Z,21.46
2022-09-03T19:36:43.719Z,21.58
2022-09-03T19:39:47.773Z,21.60
2022-09-03T19:42:44.664Z,21.59
2022-09-03T19:45:42.023Z,21.58
2022-09-03T19:48:38.441Z,21.14
2022-09-03T19:51:33.207Z,21.50
2022-09-03T19:54:24.652Z,21.61
2022-09-03T19:57:15.455Z,21.61
2022-09-03T20:00:06.536Z,21.61
2022-09-03T20:02:54.528Z,21.64
2022-09-03T20:05:42.809Z,21.45
2022-09-03T20:08:34.259Z,21.68
2022-09-03T20:11:07.126Z,21.65
2022-09-03T20:13:54.813Z,21.59
2022-09-03T20:16:31.192Z,21.52
2022-09-03T20:19:08.117Z,21.56
2022-09-03T20:21:44.594Z,21.50
2022-09-03T20:24:28.447Z,21.45
2022-09-03T20:27:05.171Z,21.49
2022-09-03T20:29:55.814Z,21.56
2022-09-03T20:32:45.393Z,21.59
2022-09-03T20:35:23.706Z,21.08
2022-09-03T20:38:03.010Z,21.67
2022-09-03T20:40:45.863Z,21.70
2022-09-03T20:44:00.206Z,21.57
2022-09-03T20:46:47.780Z,21.51
2022-09-03T20:49:31.354Z,21.59
2022-09-03T20:52:07.366Z,21.66
2022-09-03T20:54:39.449Z,21.71
2022-09-03T20:57:22.268Z,21.72
2022-09-03T21:00:05.675Z,21.66
2022-09-03T21:02:51.559Z,21.66
2022-09-03T21:05:27.815Z,21.58
2022-09-03T21:08:09.017Z,21.60
2022-09-03T21:10:49.175Z,21.37
2022-09-03T21:13:32.788Z,21.39
2022-09-03T21:16:24.345Z,21.32
2022-09-03T21:19:04.654Z,21.39
2022-09-03T21:21:48.253Z,21.39
2022-09-03T21:24:22.729Z,21.44
2022-09-03T21:27:08.346Z,21.30
2022-09-03T21:29:44.397Z,21.36
2022-09-03T21:32:20.004Z,21.36
2022-09-03T21:34:57.771Z,21.47
2022-09-03T21:37:28.263Z,21.47
2022-09-03T21:39:59.485Z,21.28
2022-09-03T21:42:36.567Z,21.26
2022-09-03T21:45:12.423Z,20.93
2022-09-03T21:47:46.134Z,21.21
2022-09-03T21:50:19.465Z,21.24
2022-09-03T21:52:55.447Z,21.09
2022-09-03T21:55:43.115Z,21.32
2022-09-03T21:58:24.010Z,21.29
2022-09-03T22:01:02.224Z,21.32
2022-09-03T22:03:32.211Z,21.38
2022-09-03T22:06:10.728Z,21.36
2022-09-03T22:08:47.401Z,21.43
2022-09-03T22:11:24.212Z,21.52
2022-09-03T22:14:05.144Z,21.47
2022-09-03T22:16:40.283Z,21.43
2022-09-03T22:19:11.002Z,21.35
2022-09-03T22:21:59.899Z,21.31
2022-09-03T22:24:40.623Z,21.35
2022-09-03T22:27:18.368Z,21.27
2022-09-03T22:29:58.772Z,21.14
2022-09-03T22:32:36.506Z,21.01
2022-09-03T22:35:28.437Z,21.03
2022-09-03T22:38:14.159Z,20.94
2022-09-03T22:40:52.333Z,20.92
2022-09-03T22:43:37.911Z,20.87
2022-09-03T22:46:13.693Z,20.88
2022-09-03T22:49:02.719Z,20.89
2022-09-03T22:51:47.812Z,20.94
2022-09-03T22:56:59.326Z,20.84
2022-09-03T22:59:34.493Z,20.79
2022-09-03T23:02:11.708Z,20.87
2022-09-03T23:04:50.518Z,20.80
2022-09-03T23:07:26.765Z,20.79
2022-09-03T23:10:03.635Z,20.77
2022-09-03T23:12:40.210Z,20.78
2022-09-03T23:15:14.443Z,20.62
2022-09-03T23:17:48.391Z,20.65
2022-09-03T23:20:21.477Z,20.67
2022-09-03T23:22:59.552Z,20.66
2022-09-03T23:25:36.921Z,20.62
2022-09-03T23:28:12.124Z,20.72
2022-09-03T23:30:42.379Z,20.66
2022-09-03T23:33:12.813Z,20.75
2022-09-03T23:35:49.782Z,20.65
2022-09-03T23:38:26.916Z,20.64
2022-09-03T23:41:04.668Z,20.62
2022-09-03T23:44:04.162Z,20.66
2022-09-03T23:46:41.199Z,20.74
2022-09-03T23:49:29.003Z,20.76
2022-09-03T23:52:24.200Z,20.69
2022-09-03T23:55:04.593Z,20.70
2022-09-03T23:57:40.337Z,20.64
